sensor_id;sensor_type;location;lat;lon;timestamp;temperature;humidity
56103;DHT22;41970;48.774;9.280;2023-06-05T00:00:07;16.70;79.90
56103;DHT22;41970;48.774;9.280;2023-06-05T00:02:33;16.40;79.90
56103;DHT22;41970;48.774;9.280;2023-06-05T00:04:58;16.30;80.40
56103;DHT22;41970;48.774;9.280;2023-06-05T00:07:24;16.00;81.20
56103;DHT22;41970;48.774;9.280;2023-06-05T00:09:50;16.00;81.10
56103;DHT22;41970;48.774;9.280;2023-06-05T00:12:15;16.10;81.40
56103;DHT22;41970;48.774;9.280;2023-06-05T00:14:43;16.10;81.30
56103;DHT22;41970;48.774;9.280;2023-06-05T00:17:09;16.20;81.10
56103;DHT22;41970;48.774;9.280;2023-06-05T00:19:34;16.20;81.20
56103;DHT22;41970;48.774;9.280;2023-06-05T00:22:00;16.20;81.20
56103;DHT22;41970;48.774;9.280;2023-06-05T00:24:26;16.20;81.20
56103;DHT22;41970;48.774;9.280;2023-06-05T00:26:53;16.20;80.80
56103;DHT22;41970;48.774;9.280;2023-06-05T00:29:19;16.10;81.40
56103;DHT22;41970;48.774;9.280;2023-06-05T00:31:44;16.10;82.30
56103;DHT22;41970;48.774;9.280;2023-06-05T00:34:12;16.10;81.40
56103;DHT22;41970;48.774;9.280;2023-06-05T00:36:39;16.00;81.60
56103;DHT22;41970;48.774;9.280;2023-06-05T00:39:06;15.90;82.40
56103;DHT22;41970;48.774;9.280;2023-06-05T00:41:32;15.80;82.60
56103;DHT22;41970;48.774;9.280;2023-06-05T00:43:58;15.90;82.40
56103;DHT22;41970;48.774;9.280;2023-06-05T00:46:23;15.90;82.00
56103;DHT22;41970;48.774;9.280;2023-06-05T00:48:49;15.80;82.10
56103;DHT22;41970;48.774;9.280;2023-06-05T00:51:16;15.90;82.40
56103;DHT22;41970;48.774;9.280;2023-06-05T00:53:44;15.90;82.10
56103;DHT22;41970;48.774;9.280;2023-06-05T00:56:10;16.00;81.80
56103;DHT22;41970;48.774;9.280;2023-06-05T00:58:36;16.00;81.80
56103;DHT22;41970;48.774;9.280;2023-06-05T01:01:02;16.00;81.50
56103;DHT22;41970;48.774;9.280;2023-06-05T01:03:32;16.00;81.90
56103;DHT22;41970;48.774;9.280;2023-06-05T01:06:01;15.90;82.50
56103;DHT22;41970;48.774;9.280;2023-06-05T01:08:33;15.70;82.80
56103;DHT22;41970;48.774;9.280;2023-06-05T01:11:19;15.70;82.60
56103;DHT22;41970;48.774;9.280;2023-06-05T01:13:54;15.60;83.00
56103;DHT22;41970;48.774;9.280;2023-06-05T01:16:25;15.40;83.30
56103;DHT22;41970;48.774;9.280;2023-06-05T01:18:58;15.30;83.90
56103;DHT22;41970;48.774;9.280;2023-06-05T01:21:29;15.40;84.20
56103;DHT22;41970;48.774;9.280;2023-06-05T01:23:55;15.50;83.70
56103;DHT22;41970;48.774;9.280;2023-06-05T01:26:31;15.40;83.70
56103;DHT22;41970;48.774;9.280;2023-06-05T01:28:59;15.20;83.90
56103;DHT22;41970;48.774;9.280;2023-06-05T01:31:27;15.10;84.80
56103;DHT22;41970;48.774;9.280;2023-06-05T01:34:00;15.00;84.90
56103;DHT22;41970;48.774;9.280;2023-06-05T01:36:28;15.00;85.20
56103;DHT22;41970;48.774;9.280;2023-06-05T01:38:55;15.10;84.90
56103;DHT22;41970;48.774;9.280;2023-06-05T01:41:22;15.20;84.70
56103;DHT22;41970;48.774;9.280;2023-06-05T01:43:49;15.10;84.80
56103;DHT22;41970;48.774;9.280;2023-06-05T01:46:18;15.10;85.00
56103;DHT22;41970;48.774;9.280;2023-06-05T01:48:45;15.10;84.80
56103;DHT22;41970;48.774;9.280;2023-06-05T01:51:11;14.90;85.30
56103;DHT22;41970;48.774;9.280;2023-06-05T01:53:36;14.70;86.00
56103;DHT22;41970;48.774;9.280;2023-06-05T01:56:02;14.60;86.50
56103;DHT22;41970;48.774;9.280;2023-06-05T01:58:28;14.50;86.80
56103;DHT22;41970;48.774;9.280;2023-06-05T02:00:54;14.50;86.90
56103;DHT22;41970;48.774;9.280;2023-06-05T02:03:22;14.70;86.80
56103;DHT22;41970;48.774;9.280;2023-06-05T02:05:49;14.80;86.20
56103;DHT22;41970;48.774;9.280;2023-06-05T02:08:15;14.80;85.80
56103;DHT22;41970;48.774;9.280;2023-06-05T02:10:49;14.80;85.70
56103;DHT22;41970;48.774;9.280;2023-06-05T02:13:15;14.80;85.50
56103;DHT22;41970;48.774;9.280;2023-06-05T02:15:41;14.80;86.00
56103;DHT22;41970;48.774;9.280;2023-06-05T02:18:07;14.70;86.30
56103;DHT22;41970;48.774;9.280;2023-06-05T02:20:33;14.60;86.60
56103;DHT22;41970;48.774;9.280;2023-06-05T02:23:00;14.50;87.00
56103;DHT22;41970;48.774;9.280;2023-06-05T02:25:26;14.60;86.90
56103;DHT22;41970;48.774;9.280;2023-06-05T02:27:55;14.50;87.60
56103;DHT22;41970;48.774;9.280;2023-06-05T02:30:22;14.30;87.70
56103;DHT22;41970;48.774;9.280;2023-06-05T02:32:47;14.10;88.20
56103;DHT22;41970;48.774;9.280;2023-06-05T02:35:14;13.90;88.90
56103;DHT22;41970;48.774;9.280;2023-06-05T02:37:40;13.90;89.10
56103;DHT22;41970;48.774;9.280;2023-06-05T02:40:10;13.90;88.80
56103;DHT22;41970;48.774;9.280;2023-06-05T02:42:37;14.10;88.40
56103;DHT22;41970;48.774;9.280;2023-06-05T02:45:03;14.20;88.00
56103;DHT22;41970;48.774;9.280;2023-06-05T02:47:30;14.30;87.70
56103;DHT22;41970;48.774;9.280;2023-06-05T02:49:57;14.30;87.80
56103;DHT22;41970;48.774;9.280;2023-06-05T02:52:23;14.30;87.90
56103;DHT22;41970;48.774;9.280;2023-06-05T02:54:52;14.20;88.40
56103;DHT22;41970;48.774;9.280;2023-06-05T02:57:18;14.10;88.50
56103;DHT22;41970;48.774;9.280;2023-06-05T02:59:47;14.20;88.30
56103;DHT22;41970;48.774;9.280;2023-06-05T03:02:13;14.20;88.20
56103;DHT22;41970;48.774;9.280;2023-06-05T03:04:38;14.30;87.80
56103;DHT22;41970;48.774;9.280;2023-06-05T03:07:06;14.40;87.30
56103;DHT22;41970;48.774;9.280;2023-06-05T03:09:32;14.40;87.30
56103;DHT22;41970;48.774;9.280;2023-06-05T03:11:58;14.50;87.10
56103;DHT22;41970;48.774;9.280;2023-06-05T03:14:24;14.40;87.20
56103;DHT22;41970;48.774;9.280;2023-06-05T03:16:52;14.40;87.80
56103;DHT22;41970;48.774;9.280;2023-06-05T03:19:20;14.30;88.10
56103;DHT22;41970;48.774;9.280;2023-06-05T03:21:46;14.20;88.90
56103;DHT22;41970;48.774;9.280;2023-06-05T03:24:14;14.00;89.00
56103;DHT22;41970;48.774;9.280;2023-06-05T03:26:40;14.00;89.50
56103;DHT22;41970;48.774;9.280;2023-06-05T03:29:07;14.10;89.20
56103;DHT22;41970;48.774;9.280;2023-06-05T03:31:33;14.20;89.00
56103;DHT22;41970;48.774;9.280;2023-06-05T03:33:59;14.20;88.90
56103;DHT22;41970;48.774;9.280;2023-06-05T03:36:26;14.20;88.60
56103;DHT22;41970;48.774;9.280;2023-06-05T03:38:53;14.20;89.00
56103;DHT22;41970;48.774;9.280;2023-06-05T03:41:20;14.00;89.40
56103;DHT22;41970;48.774;9.280;2023-06-05T03:43:48;14.00;89.70
56103;DHT22;41970;48.774;9.280;2023-06-05T03:46:17;14.10;89.50
56103;DHT22;41970;48.774;9.280;2023-06-05T03:48:48;14.10;89.20
56103;DHT22;41970;48.774;9.280;2023-06-05T03:51:15;14.00;89.40
56103;DHT22;41970;48.774;9.280;2023-06-05T03:53:44;13.80;90.00
56103;DHT22;41970;48.774;9.280;2023-06-05T03:56:10;13.70;90.30
56103;DHT22;41970;48.774;9.280;2023-06-05T03:58:37;13.60;90.60
56103;DHT22;41970;48.774;9.280;2023-06-05T04:01:07;13.60;90.60
56103;DHT22;41970;48.774;9.280;2023-06-05T04:03:33;13.70;90.40
56103;DHT22;41970;48.774;9.280;2023-06-05T04:06:03;13.80;90.30
56103;DHT22;41970;48.774;9.280;2023-06-05T04:08:29;13.80;90.40
56103;DHT22;41970;48.774;9.280;2023-06-05T04:10:55;13.70;90.40
56103;DHT22;41970;48.774;9.280;2023-06-05T04:13:21;13.70;90.50
56103;DHT22;41970;48.774;9.280;2023-06-05T04:15:47;13.70;90.70
56103;DHT22;41970;48.774;9.280;2023-06-05T04:18:14;13.70;90.90
56103;DHT22;41970;48.774;9.280;2023-06-05T04:20:40;13.60;91.10
56103;DHT22;41970;48.774;9.280;2023-06-05T04:23:06;13.70;90.90
56103;DHT22;41970;48.774;9.280;2023-06-05T04:25:32;13.70;90.80
56103;DHT22;41970;48.774;9.280;2023-06-05T04:27:58;13.80;90.70
56103;DHT22;41970;48.774;9.280;2023-06-05T04:30:24;13.90;90.80
56103;DHT22;41970;48.774;9.280;2023-06-05T04:32:55;13.90;90.70
56103;DHT22;41970;48.774;9.280;2023-06-05T04:35:21;13.90;90.80
56103;DHT22;41970;48.774;9.280;2023-06-05T04:37:48;13.80;91.00
56103;DHT22;41970;48.774;9.280;2023-06-05T04:40:16;13.70;91.10
56103;DHT22;41970;48.774;9.280;2023-06-05T04:42:42;13.70;91.40
56103;DHT22;41970;48.774;9.280;2023-06-05T04:45:08;13.60;91.50
56103;DHT22;41970;48.774;9.280;2023-06-05T04:47:34;13.70;91.60
56103;DHT22;41970;48.774;9.280;2023-06-05T04:50:03;13.80;91.70
56103;DHT22;41970;48.774;9.280;2023-06-05T04:52:33;13.90;91.60
56103;DHT22;41970;48.774;9.280;2023-06-05T04:55:05;14.00;91.50
56103;DHT22;41970;48.774;9.280;2023-06-05T04:57:31;14.10;91.40
56103;DHT22;41970;48.774;9.280;2023-06-05T04:59:57;14.20;91.30
56103;DHT22;41970;48.774;9.280;2023-06-05T05:02:23;14.10;91.40
56103;DHT22;41970;48.774;9.280;2023-06-05T05:04:49;14.10;91.60
56103;DHT22;41970;48.774;9.280;2023-06-05T05:07:15;14.20;91.70
56103;DHT22;41970;48.774;9.280;2023-06-05T05:09:45;14.20;91.40
56103;DHT22;41970;48.774;9.280;2023-06-05T05:12:11;14.30;91.60
56103;DHT22;41970;48.774;9.280;2023-06-05T05:14:38;14.40;91.90
56103;DHT22;41970;48.774;9.280;2023-06-05T05:17:05;14.40;91.70
56103;DHT22;41970;48.774;9.280;2023-06-05T05:19:31;14.60;91.60
56103;DHT22;41970;48.774;9.280;2023-06-05T05:21:57;14.60;91.60
56103;DHT22;41970;48.774;9.280;2023-06-05T05:24:23;14.80;91.30
56103;DHT22;41970;48.774;9.280;2023-06-05T05:26:51;14.80;91.20
56103;DHT22;41970;48.774;9.280;2023-06-05T05:29:17;14.90;91.00
56103;DHT22;41970;48.774;9.280;2023-06-05T05:31:44;15.00;90.90
56103;DHT22;41970;48.774;9.280;2023-06-05T05:34:10;15.10;90.70
56103;DHT22;41970;48.774;9.280;2023-06-05T05:36:35;15.20;90.80
56103;DHT22;41970;48.774;9.280;2023-06-05T05:39:04;15.30;90.70
56103;DHT22;41970;48.774;9.280;2023-06-05T05:41:30;15.30;90.30
56103;DHT22;41970;48.774;9.280;2023-06-05T05:43:56;15.40;90.20
56103;DHT22;41970;48.774;9.280;2023-06-05T05:46:22;15.50;89.20
56103;DHT22;41970;48.774;9.280;2023-06-05T05:48:47;15.60;90.10
56103;DHT22;41970;48.774;9.280;2023-06-05T05:51:13;15.60;90.50
56103;DHT22;41970;48.774;9.280;2023-06-05T05:53:39;15.80;89.60
56103;DHT22;41970;48.774;9.280;2023-06-05T05:56:05;15.90;88.70
56103;DHT22;41970;48.774;9.280;2023-06-05T05:58:31;16.00;88.10
56103;DHT22;41970;48.774;9.280;2023-06-05T06:00:57;16.10;88.10
56103;DHT22;41970;48.774;9.280;2023-06-05T06:03:25;16.10;87.90
56103;DHT22;41970;48.774;9.280;2023-06-05T06:05:52;16.20;87.70
56103;DHT22;41970;48.774;9.280;2023-06-05T06:08:18;16.30;87.80
56103;DHT22;41970;48.774;9.280;2023-06-05T06:10:44;16.50;86.90
56103;DHT22;41970;48.774;9.280;2023-06-05T06:13:11;16.50;87.10
56103;DHT22;41970;48.774;9.280;2023-06-05T06:15:37;16.60;87.20
56103;DHT22;41970;48.774;9.280;2023-06-05T06:18:05;16.70;86.70
56103;DHT22;41970;48.774;9.280;2023-06-05T06:20:31;16.80;86.30
56103;DHT22;41970;48.774;9.280;2023-06-05T06:22:59;16.90;86.20
56103;DHT22;41970;48.774;9.280;2023-06-05T06:25:25;17.00;85.50
56103;DHT22;41970;48.774;9.280;2023-06-05T06:27:55;17.10;85.30
56103;DHT22;41970;48.774;9.280;2023-06-05T06:30:21;17.30;85.00
56103;DHT22;41970;48.774;9.280;2023-06-05T06:32:47;17.40;83.70
56103;DHT22;41970;48.774;9.280;2023-06-05T06:35:13;17.60;84.30
56103;DHT22;41970;48.774;9.280;2023-06-05T06:37:40;17.80;84.10
56103;DHT22;41970;48.774;9.280;2023-06-05T06:40:06;17.90;84.00
56103;DHT22;41970;48.774;9.280;2023-06-05T06:42:37;18.00;82.50
56103;DHT22;41970;48.774;9.280;2023-06-05T06:45:03;18.10;82.80
56103;DHT22;41970;48.774;9.280;2023-06-05T06:47:29;18.10;82.00
56103;DHT22;41970;48.774;9.280;2023-06-05T06:49:55;18.20;82.30
56103;DHT22;41970;48.774;9.280;2023-06-05T06:52:22;18.30;80.20
56103;DHT22;41970;48.774;9.280;2023-06-05T06:54:49;18.30;80.40
56103;DHT22;41970;48.774;9.280;2023-06-05T06:57:15;18.30;80.20
56103;DHT22;41970;48.774;9.280;2023-06-05T06:59:41;18.60;79.20
56103;DHT22;41970;48.774;9.280;2023-06-05T07:02:15;18.90;79.80
56103;DHT22;41970;48.774;9.280;2023-06-05T07:04:41;19.30;78.20
56103;DHT22;41970;48.774;9.280;2023-06-05T07:07:10;19.70;77.80
56103;DHT22;41970;48.774;9.280;2023-06-05T07:09:36;20.00;77.40
56103;DHT22;41970;48.774;9.280;2023-06-05T07:12:03;20.10;77.80
56103;DHT22;41970;48.774;9.280;2023-06-05T07:14:31;20.40;78.20
56103;DHT22;41970;48.774;9.280;2023-06-05T07:17:00;20.60;77.60
56103;DHT22;41970;48.774;9.280;2023-06-05T07:19:30;20.70;78.00
56103;DHT22;41970;48.774;9.280;2023-06-05T07:21:57;20.90;77.40
56103;DHT22;41970;48.774;9.280;2023-06-05T07:24:24;21.10;77.70
56103;DHT22;41970;48.774;9.280;2023-06-05T07:26:54;21.40;77.10
56103;DHT22;41970;48.774;9.280;2023-06-05T07:29:24;21.60;75.90
56103;DHT22;41970;48.774;9.280;2023-06-05T07:31:51;21.90;75.60
56103;DHT22;41970;48.774;9.280;2023-06-05T07:34:21;22.20;75.50
56103;DHT22;41970;48.774;9.280;2023-06-05T07:36:48;22.30;75.70
56103;DHT22;41970;48.774;9.280;2023-06-05T07:39:15;22.60;77.10
56103;DHT22;41970;48.774;9.280;2023-06-05T07:41:42;22.70;74.30
56103;DHT22;41970;48.774;9.280;2023-06-05T07:44:12;22.90;74.30
56103;DHT22;41970;48.774;9.280;2023-06-05T07:46:42;23.30;74.50
56103;DHT22;41970;48.774;9.280;2023-06-05T07:49:09;23.60;74.20
56103;DHT22;41970;48.774;9.280;2023-06-05T07:51:37;23.40;75.00
56103;DHT22;41970;48.774;9.280;2023-06-05T07:54:12;23.70;75.60
56103;DHT22;41970;48.774;9.280;2023-06-05T07:56:38;23.80;74.20
56103;DHT22;41970;48.774;9.280;2023-06-05T07:59:05;23.60;76.90
56103;DHT22;41970;48.774;9.280;2023-06-05T08:01:32;23.90;75.30
56103;DHT22;41970;48.774;9.280;2023-06-05T08:04:02;23.80;76.70
56103;DHT22;41970;48.774;9.280;2023-06-05T08:06:29;24.30;78.00
56103;DHT22;41970;48.774;9.280;2023-06-05T08:08:56;24.90;77.70
56103;DHT22;41970;48.774;9.280;2023-06-05T08:11:21;25.00;73.90
56103;DHT22;41970;48.774;9.280;2023-06-05T08:13:47;25.20;74.30
56103;DHT22;41970;48.774;9.280;2023-06-05T08:16:13;25.10;73.30
56103;DHT22;41970;48.774;9.280;2023-06-05T08:18:41;25.00;73.00
56103;DHT22;41970;48.774;9.280;2023-06-05T08:21:07;25.20;74.00
56103;DHT22;41970;48.774;9.280;2023-06-05T08:23:33;24.90;74.70
56103;DHT22;41970;48.774;9.280;2023-06-05T08:25:59;24.70;74.60
56103;DHT22;41970;48.774;9.280;2023-06-05T08:28:25;24.90;74.20
56103;DHT22;41970;48.774;9.280;2023-06-05T08:30:50;24.90;74.80
56103;DHT22;41970;48.774;9.280;2023-06-05T08:33:19;24.90;76.40
56103;DHT22;41970;48.774;9.280;2023-06-05T08:35:45;25.10;74.10
56103;DHT22;41970;48.774;9.280;2023-06-05T08:38:11;25.20;73.30
56103;DHT22;41970;48.774;9.280;2023-06-05T08:40:39;25.30;73.70
56103;DHT22;41970;48.774;9.280;2023-06-05T08:43:05;25.50;73.10
56103;DHT22;41970;48.774;9.280;2023-06-05T08:45:31;25.10;74.40
56103;DHT22;41970;48.774;9.280;2023-06-05T08:47:59;25.10;73.90
56103;DHT22;41970;48.774;9.280;2023-06-05T08:50:30;24.90;74.80
56103;DHT22;41970;48.774;9.280;2023-06-05T08:53:00;24.70;74.60
56103;DHT22;41970;48.774;9.280;2023-06-05T08:55:27;24.60;75.00
56103;DHT22;41970;48.774;9.280;2023-06-05T08:57:54;24.90;75.00
56103;DHT22;41970;48.774;9.280;2023-06-05T09:00:21;25.10;74.60
56103;DHT22;41970;48.774;9.280;2023-06-05T09:02:47;25.00;75.40
56103;DHT22;41970;48.774;9.280;2023-06-05T09:05:17;25.10;76.30
56103;DHT22;41970;48.774;9.280;2023-06-05T09:07:43;25.00;75.40
56103;DHT22;41970;48.774;9.280;2023-06-05T09:10:28;24.90;76.10
56103;DHT22;41970;48.774;9.280;2023-06-05T09:12:59;24.50;76.10
56103;DHT22;41970;48.774;9.280;2023-06-05T09:15:26;24.70;75.60
56103;DHT22;41970;48.774;9.280;2023-06-05T09:18:10;24.60;76.80
56103;DHT22;41970;48.774;9.280;2023-06-05T09:20:44;25.00;76.10
56103;DHT22;41970;48.774;9.280;2023-06-05T09:23:27;25.30;74.80
56103;DHT22;41970;48.774;9.280;2023-06-05T09:25:58;25.30;75.40
56103;DHT22;41970;48.774;9.280;2023-06-05T09:28:24;25.40;73.70
56103;DHT22;41970;48.774;9.280;2023-06-05T09:33:24;25.40;74.40
56103;DHT22;41970;48.774;9.280;2023-06-05T09:36:07;25.60;75.40
56103;DHT22;41970;48.774;9.280;2023-06-05T09:38:34;25.80;73.10
56103;DHT22;41970;48.774;9.280;2023-06-05T09:41:08;26.00;73.60
56103;DHT22;41970;48.774;9.280;2023-06-05T09:43:35;26.20;73.50
56103;DHT22;41970;48.774;9.280;2023-06-05T09:46:10;26.10;73.60
56103;DHT22;41970;48.774;9.280;2023-06-05T09:48:37;26.00;73.40
56103;DHT22;41970;48.774;9.280;2023-06-05T09:51:13;26.00;72.00
56103;DHT22;41970;48.774;9.280;2023-06-05T09:53:45;26.10;72.60
56103;DHT22;41970;48.774;9.280;2023-06-05T09:56:16;26.00;74.00
56103;DHT22;41970;48.774;9.280;2023-06-05T09:58:51;26.10;71.50
56103;DHT22;41970;48.774;9.280;2023-06-05T10:01:22;26.10;72.10
56103;DHT22;41970;48.774;9.280;2023-06-05T10:06:47;26.10;72.10
56103;DHT22;41970;48.774;9.280;2023-06-05T10:09:14;26.00;72.20
56103;DHT22;41970;48.774;9.280;2023-06-05T10:11:41;26.00;72.20
56103;DHT22;41970;48.774;9.280;2023-06-05T10:14:09;25.50;72.80
56103;DHT22;41970;48.774;9.280;2023-06-05T10:16:35;25.70;73.00
56103;DHT22;41970;48.774;9.280;2023-06-05T10:19:03;25.70;71.40
56103;DHT22;41970;48.774;9.280;2023-06-05T10:21:29;25.40;70.10
56103;DHT22;41970;48.774;9.280;2023-06-05T10:23:59;25.30;71.50
56103;DHT22;41970;48.774;9.280;2023-06-05T10:32:07;25.60;68.30
56103;DHT22;41970;48.774;9.280;2023-06-05T10:34:48;25.70;67.40
56103;DHT22;41970;48.774;9.280;2023-06-05T10:39:54;25.50;66.30
56103;DHT22;41970;48.774;9.280;2023-06-05T10:42:27;25.40;66.40
56103;DHT22;41970;48.774;9.280;2023-06-05T10:44:54;25.40;67.00
56103;DHT22;41970;48.774;9.280;2023-06-05T10:52:44;24.90;63.70
56103;DHT22;41970;48.774;9.280;2023-06-05T10:55:10;24.70;65.40
56103;DHT22;41970;48.774;9.280;2023-06-05T10:58:05;25.00;67.00
56103;DHT22;41970;48.774;9.280;2023-06-05T11:00:38;25.20;66.00
56103;DHT22;41970;48.774;9.280;2023-06-05T11:03:05;25.40;63.50
56103;DHT22;41970;48.774;9.280;2023-06-05T11:05:31;25.70;64.50
56103;DHT22;41970;48.774;9.280;2023-06-05T11:08:17;25.60;64.00
56103;DHT22;41970;48.774;9.280;2023-06-05T11:11:04;25.30;65.00
56103;DHT22;41970;48.774;9.280;2023-06-05T11:13:54;25.20;62.10
56103;DHT22;41970;48.774;9.280;2023-06-05T11:16:33;25.30;62.90
56103;DHT22;41970;48.774;9.280;2023-06-05T11:22:06;25.20;62.30
56103;DHT22;41970;48.774;9.280;2023-06-05T11:24:36;25.10;63.80
56103;DHT22;41970;48.774;9.280;2023-06-05T11:27:06;25.10;63.90
56103;DHT22;41970;48.774;9.280;2023-06-05T11:29:32;25.10;62.10
56103;DHT22;41970;48.774;9.280;2023-06-05T11:31:59;25.00;62.00
56103;DHT22;41970;48.774;9.280;2023-06-05T11:34:25;24.90;61.30
56103;DHT22;41970;48.774;9.280;2023-06-05T11:36:53;25.00;63.00
56103;DHT22;41970;48.774;9.280;2023-06-05T11:39:19;25.10;62.40
56103;DHT22;41970;48.774;9.280;2023-06-05T11:41:50;25.30;62.30
56103;DHT22;41970;48.774;9.280;2023-06-05T11:44:33;25.50;62.60
56103;DHT22;41970;48.774;9.280;2023-06-05T11:47:01;25.60;62.60
56103;DHT22;41970;48.774;9.280;2023-06-05T11:49:28;25.60;61.90
56103;DHT22;41970;48.774;9.280;2023-06-05T11:51:54;25.60;60.60
56103;DHT22;41970;48.774;9.280;2023-06-05T11:54:30;25.50;60.20
56103;DHT22;41970;48.774;9.280;2023-06-05T11:57:00;25.50;60.20
56103;DHT22;41970;48.774;9.280;2023-06-05T11:59:34;25.60;60.00
56103;DHT22;41970;48.774;9.280;2023-06-05T12:02:00;25.70;60.50
56103;DHT22;41970;48.774;9.280;2023-06-05T12:04:29;25.70;59.90
56103;DHT22;41970;48.774;9.280;2023-06-05T12:06:55;25.60;59.90
56103;DHT22;41970;48.774;9.280;2023-06-05T12:09:22;25.60;60.50
56103;DHT22;41970;48.774;9.280;2023-06-05T12:11:48;25.70;58.70
56103;DHT22;41970;48.774;9.280;2023-06-05T12:14:30;25.70;59.60
56103;DHT22;41970;48.774;9.280;2023-06-05T12:16:56;25.80;59.70
56103;DHT22;41970;48.774;9.280;2023-06-05T12:19:22;25.80;59.40
56103;DHT22;41970;48.774;9.280;2023-06-05T12:21:49;25.60;58.80
56103;DHT22;41970;48.774;9.280;2023-06-05T12:24:26;25.60;59.90
56103;DHT22;41970;48.774;9.280;2023-06-05T12:26:54;25.70;59.10
56103;DHT22;41970;48.774;9.280;2023-06-05T12:31:52;25.80;60.00
56103;DHT22;41970;48.774;9.280;2023-06-05T12:34:18;26.00;58.30
56103;DHT22;41970;48.774;9.280;2023-06-05T12:36:44;26.00;59.80
56103;DHT22;41970;48.774;9.280;2023-06-05T12:39:14;26.00;59.20
56103;DHT22;41970;48.774;9.280;2023-06-05T12:41:41;26.10;57.00
56103;DHT22;41970;48.774;9.280;2023-06-05T12:44:08;26.20;57.20
56103;DHT22;41970;48.774;9.280;2023-06-05T12:46:34;26.30;57.40
56103;DHT22;41970;48.774;9.280;2023-06-05T12:49:03;26.60;57.20
56103;DHT22;41970;48.774;9.280;2023-06-05T12:51:29;26.40;58.50
56103;DHT22;41970;48.774;9.280;2023-06-05T12:53:55;26.40;57.30
56103;DHT22;41970;48.774;9.280;2023-06-05T12:56:25;26.40;57.20
56103;DHT22;41970;48.774;9.280;2023-06-05T12:58:56;26.40;58.00
56103;DHT22;41970;48.774;9.280;2023-06-05T13:01:23;26.50;57.40
56103;DHT22;41970;48.774;9.280;2023-06-05T13:03:51;26.60;57.30
56103;DHT22;41970;48.774;9.280;2023-06-05T13:06:17;26.60;57.10
56103;DHT22;41970;48.774;9.280;2023-06-05T13:08:43;26.70;56.00
56103;DHT22;41970;48.774;9.280;2023-06-05T13:11:11;26.80;56.10
56103;DHT22;41970;48.774;9.280;2023-06-05T13:13:37;26.80;56.40
56103;DHT22;41970;48.774;9.280;2023-06-05T13:16:03;26.70;56.70
56103;DHT22;41970;48.774;9.280;2023-06-05T13:18:32;26.80;55.90
56103;DHT22;41970;48.774;9.280;2023-06-05T13:20:59;26.90;56.80
56103;DHT22;41970;48.774;9.280;2023-06-05T13:23:25;26.80;55.60
56103;DHT22;41970;48.774;9.280;2023-06-05T13:25:50;26.80;56.30
56103;DHT22;41970;48.774;9.280;2023-06-05T13:28:16;26.80;55.60
56103;DHT22;41970;48.774;9.280;2023-06-05T13:30:42;26.80;56.30
56103;DHT22;41970;48.774;9.280;2023-06-05T13:33:08;26.70;56.50
56103;DHT22;41970;48.774;9.280;2023-06-05T13:35:34;26.70;56.60
56103;DHT22;41970;48.774;9.280;2023-06-05T13:38:03;26.80;56.50
56103;DHT22;41970;48.774;9.280;2023-06-05T13:40:29;26.80;56.10
56103;DHT22;41970;48.774;9.280;2023-06-05T13:42:58;26.70;56.60
56103;DHT22;41970;48.774;9.280;2023-06-05T13:45:24;26.90;55.90
56103;DHT22;41970;48.774;9.280;2023-06-05T13:47:51;27.00;56.30
56103;DHT22;41970;48.774;9.280;2023-06-05T13:50:18;27.00;56.40
56103;DHT22;41970;48.774;9.280;2023-06-05T13:52:46;27.20;55.90
56103;DHT22;41970;48.774;9.280;2023-06-05T13:55:12;26.80;56.20
56103;DHT22;41970;48.774;9.280;2023-06-05T13:57:38;26.70;56.20
56103;DHT22;41970;48.774;9.280;2023-06-05T14:00:04;26.40;56.00
56103;DHT22;41970;48.774;9.280;2023-06-05T14:02:31;26.50;57.40
56103;DHT22;41970;48.774;9.280;2023-06-05T14:04:57;26.60;56.60
56103;DHT22;41970;48.774;9.280;2023-06-05T14:07:23;26.70;56.00
56103;DHT22;41970;48.774;9.280;2023-06-05T14:09:49;26.90;55.70
56103;DHT22;41970;48.774;9.280;2023-06-05T14:12:15;27.20;55.80
56103;DHT22;41970;48.774;9.280;2023-06-05T14:14:42;27.30;55.30
56103;DHT22;41970;48.774;9.280;2023-06-05T14:17:07;27.10;55.60
56103;DHT22;41970;48.774;9.280;2023-06-05T14:19:33;26.80;56.90
56103;DHT22;41970;48.774;9.280;2023-06-05T14:21:59;26.90;56.40
56103;DHT22;41970;48.774;9.280;2023-06-05T14:24:24;26.80;56.60
56103;DHT22;41970;48.774;9.280;2023-06-05T14:26:50;26.80;57.10
56103;DHT22;41970;48.774;9.280;2023-06-05T14:29:16;26.90;56.30
56103;DHT22;41970;48.774;9.280;2023-06-05T14:31:42;27.00;56.20
56103;DHT22;41970;48.774;9.280;2023-06-05T14:34:07;26.90;55.50
56103;DHT22;41970;48.774;9.280;2023-06-05T14:36:35;26.60;56.10
56103;DHT22;41970;48.774;9.280;2023-06-05T14:39:01;26.70;57.50
56103;DHT22;41970;48.774;9.280;2023-06-05T14:41:28;26.90;56.70
56103;DHT22;41970;48.774;9.280;2023-06-05T14:43:55;27.10;57.00
56103;DHT22;41970;48.774;9.280;2023-06-05T14:46:21;27.00;55.80
56103;DHT22;41970;48.774;9.280;2023-06-05T14:48:46;27.00;56.30
56103;DHT22;41970;48.774;9.280;2023-06-05T14:51:12;26.90;56.10
56103;DHT22;41970;48.774;9.280;2023-06-05T14:53:38;26.90;55.80
56103;DHT22;41970;48.774;9.280;2023-06-05T14:56:04;27.00;56.20
56103;DHT22;41970;48.774;9.280;2023-06-05T14:58:30;27.10;55.40
56103;DHT22;41970;48.774;9.280;2023-06-05T15:00:56;27.10;55.50
56103;DHT22;41970;48.774;9.280;2023-06-05T15:03:22;27.10;54.70
56103;DHT22;41970;48.774;9.280;2023-06-05T15:05:47;27.20;54.50
56103;DHT22;41970;48.774;9.280;2023-06-05T15:08:13;27.40;54.00
56103;DHT22;41970;48.774;9.280;2023-06-05T15:10:39;27.30;53.30
56103;DHT22;41970;48.774;9.280;2023-06-05T15:13:05;26.90;55.20
56103;DHT22;41970;48.774;9.280;2023-06-05T15:15:30;26.50;53.10
56103;DHT22;41970;48.774;9.280;2023-06-05T15:17:56;26.20;53.30
56103;DHT22;41970;48.774;9.280;2023-06-05T15:20:22;25.80;54.40
56103;DHT22;41970;48.774;9.280;2023-06-05T15:22:48;26.00;55.50
56103;DHT22;41970;48.774;9.280;2023-06-05T15:25:14;26.10;56.50
56103;DHT22;41970;48.774;9.280;2023-06-05T15:27:40;26.10;56.40
56103;DHT22;41970;48.774;9.280;2023-06-05T15:30:07;26.10;56.10
56103;DHT22;41970;48.774;9.280;2023-06-05T15:32:32;26.40;56.40
56103;DHT22;41970;48.774;9.280;2023-06-05T15:34:58;26.50;56.30
56103;DHT22;41970;48.774;9.280;2023-06-05T15:37:24;26.60;55.50
56103;DHT22;41970;48.774;9.280;2023-06-05T15:39:50;26.60;56.20
56103;DHT22;41970;48.774;9.280;2023-06-05T15:42:33;26.70;55.80
56103;DHT22;41970;48.774;9.280;2023-06-05T15:45:11;26.60;56.20
56103;DHT22;41970;48.774;9.280;2023-06-05T15:47:38;26.50;55.30
56103;DHT22;41970;48.774;9.280;2023-06-05T15:50:05;26.50;56.90
56103;DHT22;41970;48.774;9.280;2023-06-05T15:52:35;26.50;55.80
56103;DHT22;41970;48.774;9.280;2023-06-05T15:55:02;26.60;54.20
56103;DHT22;41970;48.774;9.280;2023-06-05T15:57:28;26.60;54.70